sensor_id;sensor_type;location;lat;lon;timestamp;P1;durP1;ratioP1;P2;durP2;ratioP2
49416;SDS011;35290;39.550;8.786;2023-10-08T00:01:02;10.98;;;5.63;;
49416;SDS011;35290;39.550;8.786;2023-10-08T00:03:29;9.52;;;5.50;;
49416;SDS011;35290;39.550;8.786;2023-10-08T00:05:54;10.40;;;5.82;;
49416;SDS011;35290;39.550;8.786;2023-10-08T00:08:21;12.32;;;6.22;;
49416;SDS011;35290;39.550;8.786;2023-10-08T00:10:47;8.85;;;5.70;;
49416;SDS011;35290;39.550;8.786;2023-10-08T00:13:13;11.70;;;5.82;;
49416;SDS011;35290;39.550;8.786;2023-10-08T00:15:43;9.65;;;5.70;;
49416;SDS011;35290;39.550;8.786;2023-10-08T00:18:17;10.55;;;5.78;;
49416;SDS011;35290;39.550;8.786;2023-10-08T00:20:44;10.20;;;5.47;;
49416;SDS011;35290;39.550;8.786;2023-10-08T00:23:30;9.35;;;5.68;;
49416;SDS011;35290;39.550;8.786;2023-10-08T00:25:55;9.00;;;5.72;;
49416;SDS011;35290;39.550;8.786;2023-10-08T00:28:23;10.75;;;5.82;;
49416;SDS011;35290;39.550;8.786;2023-10-08T00:30:49;9.02;;;6.18;;
49416;SDS011;35290;39.550;8.786;2023-10-08T00:33:15;11.93;;;6.00;;
49416;SDS011;35290;39.550;8.786;2023-10-08T00:35:42;11.98;;;6.35;;
49416;SDS011;35290;39.550;8.786;2023-10-08T00:38:08;15.57;;;6.10;;
49416;SDS011;35290;39.550;8.786;2023-10-08T00:40:40;9.43;;;6.00;;
49416;SDS011;35290;39.550;8.786;2023-10-08T00:43:28;8.50;;;6.03;;
49416;SDS011;35290;39.550;8.786;2023-10-08T00:46:03;10.43;;;6.25;;
49416;SDS011;35290;39.550;8.786;2023-10-08T00:48:29;12.00;;;6.10;;
49416;SDS011;35290;39.550;8.786;2023-10-08T00:51:03;9.90;;;5.88;;
49416;SDS011;35290;39.550;8.786;2023-10-08T00:53:56;9.82;;;5.82;;
49416;SDS011;35290;39.550;8.786;2023-10-08T00:56:27;16.33;;;5.80;;
49416;SDS011;35290;39.550;8.786;2023-10-08T00:59:11;9.43;;;5.95;;
49416;SDS011;35290;39.550;8.786;2023-10-08T01:01:44;8.48;;;5.75;;
49416;SDS011;35290;39.550;8.786;2023-10-08T01:04:20;7.38;;;5.20;;
49416;SDS011;35290;39.550;8.786;2023-10-08T01:06:55;10.27;;;5.45;;
49416;SDS011;35290;39.550;8.786;2023-10-08T01:09:26;9.15;;;5.78;;
49416;SDS011;35290;39.550;8.786;2023-10-08T01:12:07;15.40;;;6.40;;
49416;SDS011;35290;39.550;8.786;2023-10-08T01:14:34;9.20;;;6.15;;
49416;SDS011;35290;39.550;8.786;2023-10-08T01:17:00;8.80;;;5.45;;
49416;SDS011;35290;39.550;8.786;2023-10-08T01:19:26;8.77;;;5.93;;
49416;SDS011;35290;39.550;8.786;2023-10-08T01:21:53;12.50;;;5.82;;
49416;SDS011;35290;39.550;8.786;2023-10-08T01:24:18;11.38;;;6.03;;
49416;SDS011;35290;39.550;8.786;2023-10-08T01:26:49;10.65;;;5.68;;
49416;SDS011;35290;39.550;8.786;2023-10-08T01:29:14;10.90;;;5.80;;
49416;SDS011;35290;39.550;8.786;2023-10-08T01:31:46;9.82;;;5.90;;
49416;SDS011;35290;39.550;8.786;2023-10-08T01:34:14;10.18;;;5.78;;
49416;SDS011;35290;39.550;8.786;2023-10-08T01:36:42;8.27;;;5.88;;
49416;SDS011;35290;39.550;8.786;2023-10-08T01:39:11;10.10;;;5.82;;
49416;SDS011;35290;39.550;8.786;2023-10-08T01:41:44;10.93;;;5.53;;
49416;SDS011;35290;39.550;8.786;2023-10-08T01:44:11;9.57;;;5.60;;
49416;SDS011;35290;39.550;8.786;2023-10-08T01:46:37;10.38;;;5.40;;
49416;SDS011;35290;39.550;8.786;2023-10-08T01:49:05;7.55;;;5.53;;
49416;SDS011;35290;39.550;8.786;2023-10-08T01:51:38;11.10;;;5.60;;
49416;SDS011;35290;39.550;8.786;2023-10-08T01:54:09;10.25;;;5.30;;
49416;SDS011;35290;39.550;8.786;2023-10-08T01:56:39;8.02;;;5.80;;
49416;SDS011;35290;39.550;8.786;2023-10-08T01:59:11;10.32;;;6.00;;
49416;SDS011;35290;39.550;8.786;2023-10-08T02:01:42;7.80;;;5.90;;
49416;SDS011;35290;39.550;8.786;2023-10-08T02:04:09;13.48;;;6.10;;
49416;SDS011;35290;39.550;8.786;2023-10-08T02:06:37;8.65;;;5.60;;
49416;SDS011;35290;39.550;8.786;2023-10-08T02:09:02;10.63;;;6.22;;
49416;SDS011;35290;39.550;8.786;2023-10-08T02:11:40;8.63;;;5.75;;
49416;SDS011;35290;39.550;8.786;2023-10-08T02:14:19;7.07;;;5.53;;
49416;SDS011;35290;39.550;8.786;2023-10-08T02:16:46;7.93;;;5.47;;
49416;SDS011;35290;39.550;8.786;2023-10-08T02:19:12;10.88;;;5.75;;
49416;SDS011;35290;39.550;8.786;2023-10-08T02:21:38;8.63;;;5.63;;
49416;SDS011;35290;39.550;8.786;2023-10-08T02:24:11;8.55;;;6.30;;
49416;SDS011;35290;39.550;8.786;2023-10-08T02:26:38;8.30;;;5.22;;
49416;SDS011;35290;39.550;8.786;2023-10-08T02:29:04;10.43;;;5.28;;
49416;SDS011;35290;39.550;8.786;2023-10-08T02:31:39;8.80;;;5.68;;
49416;SDS011;35290;39.550;8.786;2023-10-08T02:34:05;10.15;;;5.63;;
49416;SDS011;35290;39.550;8.786;2023-10-08T02:36:37;8.88;;;5.40;;
49416;SDS011;35290;39.550;8.786;2023-10-08T02:39:05;9.48;;;5.60;;
49416;SDS011;35290;39.550;8.786;2023-10-08T02:41:38;9.50;;;5.35;;
49416;SDS011;35290;39.550;8.786;2023-10-08T02:44:08;8.07;;;5.43;;
49416;SDS011;35290;39.550;8.786;2023-10-08T02:46:40;8.98;;;5.50;;
49416;SDS011;35290;39.550;8.786;2023-10-08T02:49:07;10.57;;;5.80;;
49416;SDS011;35290;39.550;8.786;2023-10-08T02:51:36;9.20;;;5.45;;
49416;SDS011;35290;39.550;8.786;2023-10-08T02:54:06;7.97;;;5.82;;
49416;SDS011;35290;39.550;8.786;2023-10-08T02:56:43;8.32;;;5.65;;
49416;SDS011;35290;39.550;8.786;2023-10-08T02:59:12;9.05;;;6.03;;
49416;SDS011;35290;39.550;8.786;2023-10-08T03:01:39;11.90;;;6.30;;
49416;SDS011;35290;39.550;8.786;2023-10-08T03:04:05;11.38;;;6.88;;
49416;SDS011;35290;39.550;8.786;2023-10-08T03:06:40;9.95;;;6.93;;
49416;SDS011;35290;39.550;8.786;2023-10-08T03:09:06;13.65;;;6.05;;
49416;SDS011;35290;39.550;8.786;2023-10-08T03:11:35;10.93;;;6.90;;
49416;SDS011;35290;39.550;8.786;2023-10-08T03:14:02;11.43;;;6.97;;
49416;SDS011;35290;39.550;8.786;2023-10-08T03:16:28;9.82;;;6.88;;
49416;SDS011;35290;39.550;8.786;2023-10-08T03:19:01;9.57;;;6.93;;
49416;SDS011;35290;39.550;8.786;2023-10-08T03:21:26;11.88;;;6.90;;
49416;SDS011;35290;39.550;8.786;2023-10-08T03:24:04;13.07;;;7.20;;
49416;SDS011;35290;39.550;8.786;2023-10-08T03:26:37;10.20;;;6.32;;
49416;SDS011;35290;39.550;8.786;2023-10-08T03:29:04;10.40;;;6.60;;
49416;SDS011;35290;39.550;8.786;2023-10-08T03:31:32;12.27;;;6.70;;
49416;SDS011;35290;39.550;8.786;2023-10-08T03:34:14;11.55;;;6.55;;
49416;SDS011;35290;39.550;8.786;2023-10-08T03:36:40;11.65;;;6.18;;
49416;SDS011;35290;39.550;8.786;2023-10-08T03:39:15;8.52;;;5.75;;
49416;SDS011;35290;39.550;8.786;2023-10-08T03:41:43;9.23;;;5.70;;
49416;SDS011;35290;39.550;8.786;2023-10-08T03:44:30;8.27;;;5.55;;
49416;SDS011;35290;39.550;8.786;2023-10-08T03:46:55;9.27;;;6.10;;
49416;SDS011;35290;39.550;8.786;2023-10-08T03:49:22;6.55;;;5.35;;
49416;SDS011;35290;39.550;8.786;2023-10-08T03:51:47;7.35;;;5.20;;
49416;SDS011;35290;39.550;8.786;2023-10-08T03:54:17;8.15;;;5.82;;
49416;SDS011;35290;39.550;8.786;2023-10-08T03:56:44;8.23;;;5.50;;
49416;SDS011;35290;39.550;8.786;2023-10-08T03:59:16;8.27;;;5.45;;
49416;SDS011;35290;39.550;8.786;2023-10-08T04:01:53;9.52;;;5.93;;
49416;SDS011;35290;39.550;8.786;2023-10-08T04:04:19;8.65;;;5.95;;
49416;SDS011;35290;39.550;8.786;2023-10-08T04:06:47;8.48;;;5.50;;
49416;SDS011;35290;39.550;8.786;2023-10-08T04:09:13;8.70;;;5.80;;
49416;SDS011;35290;39.550;8.786;2023-10-08T04:11:45;10.05;;;5.70;;
49416;SDS011;35290;39.550;8.786;2023-10-08T04:14:14;11.73;;;6.30;;
49416;SDS011;35290;39.550;8.786;2023-10-08T04:16:41;7.80;;;6.20;;
49416;SDS011;35290;39.550;8.786;2023-10-08T04:19:07;12.45;;;6.43;;
49416;SDS011;35290;39.550;8.786;2023-10-08T04:21:33;7.68;;;5.75;;
49416;SDS011;35290;39.550;8.786;2023-10-08T04:23:59;9.05;;;6.25;;
49416;SDS011;35290;39.550;8.786;2023-10-08T04:26:30;10.43;;;6.35;;
49416;SDS011;35290;39.550;8.786;2023-10-08T04:28:57;7.93;;;6.38;;
49416;SDS011;35290;39.550;8.786;2023-10-08T04:31:23;10.57;;;6.95;;
49416;SDS011;35290;39.550;8.786;2023-10-08T04:34:02;13.80;;;7.75;;
49416;SDS011;35290;39.550;8.786;2023-10-08T04:36:43;10.55;;;7.95;;
49416;SDS011;35290;39.550;8.786;2023-10-08T04:39:10;14.95;;;8.27;;
49416;SDS011;35290;39.550;8.786;2023-10-08T04:41:46;11.73;;;7.55;;
49416;SDS011;35290;39.550;8.786;2023-10-08T04:44:13;12.73;;;8.98;;
49416;SDS011;35290;39.550;8.786;2023-10-08T04:46:40;13.38;;;8.68;;
49416;SDS011;35290;39.550;8.786;2023-10-08T04:49:15;12.13;;;8.80;;
49416;SDS011;35290;39.550;8.786;2023-10-08T04:51:54;16.10;;;9.18;;
49416;SDS011;35290;39.550;8.786;2023-10-08T04:54:28;14.85;;;9.38;;
49416;SDS011;35290;39.550;8.786;2023-10-08T04:56:59;14.88;;;9.43;;
49416;SDS011;35290;39.550;8.786;2023-10-08T04:59:29;14.82;;;9.30;;
49416;SDS011;35290;39.550;8.786;2023-10-08T05:02:01;15.75;;;9.18;;
49416;SDS011;35290;39.550;8.786;2023-10-08T05:04:39;13.52;;;9.82;;
49416;SDS011;35290;39.550;8.786;2023-10-08T05:07:17;14.48;;;9.35;;
49416;SDS011;35290;39.550;8.786;2023-10-08T05:09:47;15.30;;;9.98;;
49416;SDS011;35290;39.550;8.786;2023-10-08T05:12:28;15.85;;;9.13;;
49416;SDS011;35290;39.550;8.786;2023-10-08T05:15:00;16.75;;;9.77;;
49416;SDS011;35290;39.550;8.786;2023-10-08T05:17:37;17.25;;;9.43;;
49416;SDS011;35290;39.550;8.786;2023-10-08T05:20:19;15.30;;;9.10;;
49416;SDS011;35290;39.550;8.786;2023-10-08T05:23:08;15.60;;;8.95;;
49416;SDS011;35290;39.550;8.786;2023-10-08T05:25:53;15.50;;;8.68;;
49416;SDS011;35290;39.550;8.786;2023-10-08T05:28:38;19.60;;;9.93;;
49416;SDS011;35290;39.550;8.786;2023-10-08T05:31:26;16.30;;;8.55;;
49416;SDS011;35290;39.550;8.786;2023-10-08T05:34:22;13.95;;;8.45;;
49416;SDS011;35290;39.550;8.786;2023-10-08T05:37:14;16.38;;;8.52;;
49416;SDS011;35290;39.550;8.786;2023-10-08T05:39:57;15.32;;;8.93;;
49416;SDS011;35290;39.550;8.786;2023-10-08T05:42:38;12.63;;;8.75;;
49416;SDS011;35290;39.550;8.786;2023-10-08T05:45:11;14.90;;;9.35;;
49416;SDS011;35290;39.550;8.786;2023-10-08T05:47:37;14.75;;;8.77;;
49416;SDS011;35290;39.550;8.786;2023-10-08T05:50:04;13.55;;;8.55;;
49416;SDS011;35290;39.550;8.786;2023-10-08T05:52:42;16.10;;;9.15;;
49416;SDS011;35290;39.550;8.786;2023-10-08T05:55:32;15.32;;;9.02;;
49416;SDS011;35290;39.550;8.786;2023-10-08T05:58:12;14.88;;;8.93;;
49416;SDS011;35290;39.550;8.786;2023-10-08T06:00:44;14.10;;;7.93;;
49416;SDS011;35290;39.550;8.786;2023-10-08T06:03:33;12.25;;;8.30;;
49416;SDS011;35290;39.550;8.786;2023-10-08T06:06:17;18.20;;;9.13;;
49416;SDS011;35290;39.550;8.786;2023-10-08T06:08:42;13.63;;;9.18;;
49416;SDS011;35290;39.550;8.786;2023-10-08T06:11:20;15.88;;;9.65;;
49416;SDS011;35290;39.550;8.786;2023-10-08T06:14:05;22.38;;;9.55;;
49416;SDS011;35290;39.550;8.786;2023-10-08T06:16:52;17.00;;;10.00;;
49416;SDS011;35290;39.550;8.786;2023-10-08T06:19:38;21.88;;;10.07;;
49416;SDS011;35290;39.550;8.786;2023-10-08T06:22:04;24.23;;;9.52;;
49416;SDS011;35290;39.550;8.786;2023-10-08T06:24:29;23.75;;;9.23;;
49416;SDS011;35290;39.550;8.786;2023-10-08T06:26:58;19.80;;;8.40;;
49416;SDS011;35290;39.550;8.786;2023-10-08T06:29:29;17.27;;;8.10;;
49416;SDS011;35290;39.550;8.786;2023-10-08T06:31:57;13.40;;;7.90;;
49416;SDS011;35290;39.550;8.786;2023-10-08T06:34:27;14.00;;;7.97;;
49416;SDS011;35290;39.550;8.786;2023-10-08T06:36:57;11.38;;;7.07;;
49416;SDS011;35290;39.550;8.786;2023-10-08T06:39:23;16.88;;;7.72;;
49416;SDS011;35290;39.550;8.786;2023-10-08T06:42:12;13.10;;;7.40;;
49416;SDS011;35290;39.550;8.786;2023-10-08T06:44:40;14.15;;;7.03;;
49416;SDS011;35290;39.550;8.786;2023-10-08T06:47:08;14.50;;;6.65;;
49416;SDS011;35290;39.550;8.786;2023-10-08T06:49:34;12.10;;;6.60;;
49416;SDS011;35290;39.550;8.786;2023-10-08T06:52:01;13.98;;;6.65;;
49416;SDS011;35290;39.550;8.786;2023-10-08T06:54:27;16.92;;;7.25;;
49416;SDS011;35290;39.550;8.786;2023-10-08T06:56:55;11.05;;;7.10;;
49416;SDS011;35290;39.550;8.786;2023-10-08T06:59:21;16.90;;;7.57;;
49416;SDS011;35290;39.550;8.786;2023-10-08T07:01:51;15.05;;;8.82;;
49416;SDS011;35290;39.550;8.786;2023-10-08T07:04:17;13.82;;;9.05;;
49416;SDS011;35290;39.550;8.786;2023-10-08T07:06:44;18.23;;;9.05;;
49416;SDS011;35290;39.550;8.786;2023-10-08T07:09:13;15.68;;;9.43;;
49416;SDS011;35290;39.550;8.786;2023-10-08T07:11:51;16.58;;;9.90;;
49416;SDS011;35290;39.550;8.786;2023-10-08T07:14:23;14.93;;;9.77;;
49416;SDS011;35290;39.550;8.786;2023-10-08T07:16:53;14.15;;;9.50;;
49416;SDS011;35290;39.550;8.786;2023-10-08T07:19:29;15.18;;;9.73;;
49416;SDS011;35290;39.550;8.786;2023-10-08T07:22:03;18.77;;;9.98;;
49416;SDS011;35290;39.550;8.786;2023-10-08T07:24:42;16.63;;;9.57;;
49416;SDS011;35290;39.550;8.786;2023-10-08T07:27:16;13.77;;;10.00;;
49416;SDS011;35290;39.550;8.786;2023-10-08T07:29:46;22.90;;;10.48;;
49416;SDS011;35290;39.550;8.786;2023-10-08T07:32:13;14.38;;;9.18;;
49416;SDS011;35290;39.550;8.786;2023-10-08T07:34:44;14.68;;;9.45;;
49416;SDS011;35290;39.550;8.786;2023-10-08T07:37:10;22.48;;;10.45;;
49416;SDS011;35290;39.550;8.786;2023-10-08T07:39:37;14.52;;;10.00;;
49416;SDS011;35290;39.550;8.786;2023-10-08T07:42:12;13.80;;;10.10;;
49416;SDS011;35290;39.550;8.786;2023-10-08T07:44:38;19.13;;;10.80;;
49416;SDS011;35290;39.550;8.786;2023-10-08T07:47:05;15.52;;;10.23;;
49416;SDS011;35290;39.550;8.786;2023-10-08T07:52:04;13.52;;;10.30;;
49416;SDS011;35290;39.550;8.786;2023-10-08T07:54:30;15.15;;;10.45;;
49416;SDS011;35290;39.550;8.786;2023-10-08T07:57:00;16.50;;;11.32;;
49416;SDS011;35290;39.550;8.786;2023-10-08T07:59:43;18.40;;;11.07;;
49416;SDS011;35290;39.550;8.786;2023-10-08T08:02:13;16.88;;;10.38;;
49416;SDS011;35290;39.550;8.786;2023-10-08T08:04:43;17.30;;;9.52;;
49416;SDS011;35290;39.550;8.786;2023-10-08T08:07:11;21.27;;;11.05;;
49416;SDS011;35290;39.550;8.786;2023-10-08T08:09:50;15.93;;;10.27;;
49416;SDS011;35290;39.550;8.786;2023-10-08T08:12:18;19.27;;;9.45;;
49416;SDS011;35290;39.550;8.786;2023-10-08T08:14:47;14.40;;;9.80;;
49416;SDS011;35290;39.550;8.786;2023-10-08T08:17:14;14.52;;;9.13;;
49416;SDS011;35290;39.550;8.786;2023-10-08T08:19:41;17.58;;;9.70;;
49416;SDS011;35290;39.550;8.786;2023-10-08T08:22:13;12.90;;;8.82;;
49416;SDS011;35290;39.550;8.786;2023-10-08T08:24:57;16.60;;;9.15;;
49416;SDS011;35290;39.550;8.786;2023-10-08T08:27:53;12.52;;;8.45;;
49416;SDS011;35290;39.550;8.786;2023-10-08T08:30:19;12.85;;;8.43;;
49416;SDS011;35290;39.550;8.786;2023-10-08T08:32:52;13.95;;;8.68;;
49416;SDS011;35290;39.550;8.786;2023-10-08T08:35:19;12.00;;;8.18;;
49416;SDS011;35290;39.550;8.786;2023-10-08T08:37:46;10.77;;;7.95;;
49416;SDS011;35290;39.550;8.786;2023-10-08T08:40:11;12.60;;;7.88;;
49416;SDS011;35290;39.550;8.786;2023-10-08T08:42:46;13.15;;;7.50;;
49416;SDS011;35290;39.550;8.786;2023-10-08T08:45:17;11.33;;;8.07;;
49416;SDS011;35290;39.550;8.786;2023-10-08T08:50:12;9.95;;;6.32;;
49416;SDS011;35290;39.550;8.786;2023-10-08T08:52:39;10.40;;;6.55;;
49416;SDS011;35290;39.550;8.786;2023-10-08T08:55:06;9.57;;;6.43;;
49416;SDS011;35290;39.550;8.786;2023-10-08T08:57:43;10.75;;;6.78;;
49416;SDS011;35290;39.550;8.786;2023-10-08T09:00:12;10.75;;;6.82;;
49416;SDS011;35290;39.550;8.786;2023-10-08T09:02:39;11.77;;;7.00;;
49416;SDS011;35290;39.550;8.786;2023-10-08T09:05:06;11.13;;;7.10;;
49416;SDS011;35290;39.550;8.786;2023-10-08T09:07:59;8.95;;;7.45;;
49416;SDS011;35290;39.550;8.786;2023-10-08T09:10:30;13.43;;;7.27;;
49416;SDS011;35290;39.550;8.786;2023-10-08T09:13:05;11.82;;;7.07;;
49416;SDS011;35290;39.550;8.786;2023-10-08T09:15:33;11.13;;;7.15;;
49416;SDS011;35290;39.550;8.786;2023-10-08T09:17:59;10.30;;;7.05;;
49416;SDS011;35290;39.550;8.786;2023-10-08T09:20:32;10.25;;;7.50;;
49416;SDS011;35290;39.550;8.786;2023-10-08T09:23:09;10.25;;;7.03;;
49416;SDS011;35290;39.550;8.786;2023-10-08T09:28:10;10.88;;;6.88;;
49416;SDS011;35290;39.550;8.786;2023-10-08T09:30:40;9.95;;;6.70;;
49416;SDS011;35290;39.550;8.786;2023-10-08T09:33:11;12.45;;;6.68;;
49416;SDS011;35290;39.550;8.786;2023-10-08T09:35:38;12.32;;;6.75;;
49416;SDS011;35290;39.550;8.786;2023-10-08T09:38:05;9.13;;;6.38;;
49416;SDS011;35290;39.550;8.786;2023-10-08T09:40:38;9.68;;;6.72;;
49416;SDS011;35290;39.550;8.786;2023-10-08T09:43:12;10.65;;;7.18;;
49416;SDS011;35290;39.550;8.786;2023-10-08T09:45:49;11.82;;;7.80;;
49416;SDS011;35290;39.550;8.786;2023-10-08T09:48:19;11.93;;;7.18;;
49416;SDS011;35290;39.550;8.786;2023-10-08T09:50:46;10.75;;;6.72;;
49416;SDS011;35290;39.550;8.786;2023-10-08T09:53:13;9.90;;;6.72;;
49416;SDS011;35290;39.550;8.786;2023-10-08T09:55:49;9.82;;;6.38;;
49416;SDS011;35290;39.550;8.786;2023-10-08T09:58:19;15.77;;;6.30;;
49416;SDS011;35290;39.550;8.786;2023-10-08T10:00:47;9.25;;;6.35;;
49416;SDS011;35290;39.550;8.786;2023-10-08T10:03:14;10.15;;;6.18;;
49416;SDS011;35290;39.550;8.786;2023-10-08T10:05:39;8.35;;;6.20;;
49416;SDS011;35290;39.550;8.786;2023-10-08T10:08:05;9.90;;;6.00;;
49416;SDS011;35290;39.550;8.786;2023-10-08T10:10:31;6.55;;;5.47;;
49416;SDS011;35290;39.550;8.786;2023-10-08T10:13:09;9.90;;;6.07;;
49416;SDS011;35290;39.550;8.786;2023-10-08T10:15:36;11.95;;;5.45;;
49416;SDS011;35290;39.550;8.786;2023-10-08T10:18:09;9.57;;;6.15;;
49416;SDS011;35290;39.550;8.786;2023-10-08T10:20:51;9.52;;;6.80;;
49416;SDS011;35290;39.550;8.786;2023-10-08T10:23:52;12.20;;;6.22;;
49416;SDS011;35290;39.550;8.786;2023-10-08T10:31:35;10.05;;;5.65;;
49416;SDS011;35290;39.550;8.786;2023-10-08T10:34:10;7.20;;;5.20;;
49416;SDS011;35290;39.550;8.786;2023-10-08T10:36:39;7.00;;;5.40;;
49416;SDS011;35290;39.550;8.786;2023-10-08T10:39:09;8.35;;;5.15;;
49416;SDS011;35290;39.550;8.786;2023-10-08T10:42:04;9.18;;;5.68;;
49416;SDS011;35290;39.550;8.786;2023-10-08T10:44:31;7.63;;;5.07;;
49416;SDS011;35290;39.550;8.786;2023-10-08T10:47:02;8.98;;;5.03;;
49416;SDS011;35290;39.550;8.786;2023-10-08T10:49:43;5.63;;;4.82;;
49416;SDS011;35290;39.550;8.786;2023-10-08T10:52:24;11.15;;;5.30;;
49416;SDS011;35290;39.550;8.786;2023-10-08T10:55:01;8.05;;;5.43;;
49416;SDS011;35290;39.550;8.786;2023-10-08T10:57:52;9.30;;;5.38;;
49416;SDS011;35290;39.550;8.786;2023-10-08T11:00:21;6.88;;;4.90;;
49416;SDS011;35290;39.550;8.786;2023-10-08T11:03:00;8.80;;;4.97;;
49416;SDS011;35290;39.550;8.786;2023-10-08T11:05:35;7.93;;;5.13;;
49416;SDS011;35290;39.550;8.786;2023-10-08T11:08:03;8.75;;;4.70;;
49416;SDS011;35290;39.550;8.786;2023-10-08T11:10:32;11.75;;;4.97;;
49416;SDS011;35290;39.550;8.786;2023-10-08T11:12:58;8.57;;;5.38;;
49416;SDS011;35290;39.550;8.786;2023-10-08T11:15:29;7.53;;;4.90;;
49416;SDS011;35290;39.550;8.786;2023-10-08T11:18:13;8.32;;;4.47;;
49416;SDS011;35290;39.550;8.786;2023-10-08T11:20:42;8.13;;;4.78;;
49416;SDS011;35290;39.550;8.786;2023-10-08T11:23:30;7.88;;;4.28;;
49416;SDS011;35290;39.550;8.786;2023-10-08T11:26:01;7.68;;;5.18;;
49416;SDS011;35290;39.550;8.786;2023-10-08T11:30:59;6.82;;;4.35;;
49416;SDS011;35290;39.550;8.786;2023-10-08T11:33:38;6.55;;;4.22;;
49416;SDS011;35290;39.550;8.786;2023-10-08T11:36:05;10.43;;;4.28;;
49416;SDS011;35290;39.550;8.786;2023-10-08T11:38:43;6.93;;;4.40;;
49416;SDS011;35290;39.550;8.786;2023-10-08T11:41:18;6.82;;;4.30;;
49416;SDS011;35290;39.550;8.786;2023-10-08T11:43:49;7.30;;;4.40;;
49416;SDS011;35290;39.550;8.786;2023-10-08T11:49:12;5.65;;;3.90;;
49416;SDS011;35290;39.550;8.786;2023-10-08T11:51:43;5.68;;;4.18;;
49416;SDS011;35290;39.550;8.786;2023-10-08T11:54:11;5.68;;;4.53;;
49416;SDS011;35290;39.550;8.786;2023-10-08T11:56:39;5.97;;;4.35;;
49416;SDS011;35290;39.550;8.786;2023-10-08T11:59:05;4.82;;;4.07;;
49416;SDS011;35290;39.550;8.786;2023-10-08T12:01:37;7.32;;;4.25;;
49416;SDS011;35290;39.550;8.786;2023-10-08T12:04:07;6.28;;;4.35;;
49416;SDS011;35290;39.550;8.786;2023-10-08T12:06:39;9.27;;;4.60;;
49416;SDS011;35290;39.550;8.786;2023-10-08T12:09:12;5.93;;;4.15;;
49416;SDS011;35290;39.550;8.786;2023-10-08T12:11:39;6.85;;;4.80;;
49416;SDS011;35290;39.550;8.786;2023-10-08T12:14:06;6.95;;;4.13;;
49416;SDS011;35290;39.550;8.786;2023-10-08T12:16:36;6.82;;;3.92;;
49416;SDS011;35290;39.550;8.786;2023-10-08T12:19:04;6.07;;;3.92;;
49416;SDS011;35290;39.550;8.786;2023-10-08T12:21:41;6.63;;;4.28;;
49416;SDS011;35290;39.550;8.786;2023-10-08T12:24:07;8.02;;;4.20;;
49416;SDS011;35290;39.550;8.786;2023-10-08T12:26:37;6.93;;;4.13;;
49416;SDS011;35290;39.550;8.786;2023-10-08T12:29:14;8.75;;;4.15;;
49416;SDS011;35290;39.550;8.786;2023-10-08T12:34:13;5.80;;;4.10;;
49416;SDS011;35290;39.550;8.786;2023-10-08T12:36:40;6.75;;;4.13;;
49416;SDS011;35290;39.550;8.786;2023-10-08T12:39:07;9.18;;;4.57;;
49416;SDS011;35290;39.550;8.786;2023-10-08T12:41:43;6.43;;;4.45;;
49416;SDS011;35290;39.550;8.786;2023-10-08T12:44:13;7.60;;;4.28;;
49416;SDS011;35290;39.550;8.786;2023-10-08T12:46:47;5.40;;;4.35;;
49416;SDS011;35290;39.550;8.786;2023-10-08T12:49:24;7.28;;;4.28;;
49416;SDS011;35290;39.550;8.786;2023-10-08T12:52:02;5.78;;;4.40;;
49416;SDS011;35290;39.550;8.786;2023-10-08T12:54:29;8.40;;;4.45;;
49416;SDS011;35290;39.550;8.786;2023-10-08T12:56:58;7.55;;;4.15;;
49416;SDS011;35290;39.550;8.786;2023-10-08T12:59:25;9.50;;;4.28;;
49416;SDS011;35290;39.550;8.786;2023-10-08T13:01:55;5.35;;;4.43;;
49416;SDS011;35290;39.550;8.786;2023-10-08T13:04:22;6.65;;;4.20;;
49416;SDS011;35290;39.550;8.786;2023-10-08T13:07:00;9.70;;;4.60;;
49416;SDS011;35290;39.550;8.786;2023-10-08T13:09:27;6.50;;;4.57;;
49416;SDS011;35290;39.550;8.786;2023-10-08T13:11:56;7.57;;;4.53;;
49416;SDS011;35290;39.550;8.786;2023-10-08T13:14:25;8.25;;;4.45;;
49416;SDS011;35290;39.550;8.786;2023-10-08T13:16:51;5.85;;;4.57;;
49416;SDS011;35290;39.550;8.786;2023-10-08T13:19:19;6.38;;;4.30;;
49416;SDS011;35290;39.550;8.786;2023-10-08T13:21:48;5.38;;;4.47;;
49416;SDS011;35290;39.550;8.786;2023-10-08T13:24:17;8.85;;;4.38;;
49416;SDS011;35290;39.550;8.786;2023-10-08T13:26:43;4.60;;;3.63;;
49416;SDS011;35290;39.550;8.786;2023-10-08T13:29:13;6.55;;;3.92;;
49416;SDS011;35290;39.550;8.786;2023-10-08T13:31:39;7.30;;;4.13;;
49416;SDS011;35290;39.550;8.786;2023-10-08T13:34:09;7.72;;;4.53;;
49416;SDS011;35290;39.550;8.786;2023-10-08T13:36:41;8.02;;;4.35;;
49416;SDS011;35290;39.550;8.786;2023-10-08T13:39:08;8.30;;;4.35;;
49416;SDS011;35290;39.550;8.786;2023-10-08T13:41:35;8.50;;;4.85;;
49416;SDS011;35290;39.550;8.786;2023-10-08T13:46:32;5.93;;;4.15;;
49416;SDS011;35290;39.550;8.786;2023-10-08T13:49:01;7.35;;;4.75;;
49416;SDS011;35290;39.550;8.786;2023-10-08T13:51:28;6.00;;;4.43;;
49416;SDS011;35290;39.550;8.786;2023-10-08T13:53:54;5.82;;;4.25;;
49416;SDS011;35290;39.550;8.786;2023-10-08T13:56:34;11.75;;;4.53;;
49416;SDS011;35290;39.550;8.786;2023-10-08T13:59:03;7.25;;;4.40;;
49416;SDS011;35290;39.550;8.786;2023-10-08T14:01:39;8.70;;;4.63;;
49416;SDS011;35290;39.550;8.786;2023-10-08T14:04:09;8.10;;;4.28;;
49416;SDS011;35290;39.550;8.786;2023-10-08T14:06:36;9.07;;;5.30;;
49416;SDS011;35290;39.550;8.786;2023-10-08T14:09:05;7.35;;;4.57;;
49416;SDS011;35290;39.550;8.786;2023-10-08T14:11:37;6.60;;;4.43;;
49416;SDS011;35290;39.550;8.786;2023-10-08T14:14:03;7.88;;;4.50;;
49416;SDS011;35290;39.550;8.786;2023-10-08T14:16:39;11.73;;;4.90;;
49416;SDS011;35290;39.550;8.786;2023-10-08T14:19:11;7.95;;;4.40;;
49416;SDS011;35290;39.550;8.786;2023-10-08T14:21:40;6.72;;;4.10;;
49416;SDS011;35290;39.550;8.786;2023-10-08T14:24:26;7.72;;;4.47;;
49416;SDS011;35290;39.550;8.786;2023-10-08T14:26:56;6.82;;;4.53;;
49416;SDS011;35290;39.550;8.786;2023-10-08T14:29:28;11.40;;;4.50;;
49416;SDS011;35290;39.550;8.786;2023-10-08T14:32:00;9.55;;;4.70;;
49416;SDS011;35290;39.550;8.786;2023-10-08T14:34:26;5.68;;;4.10;;
49416;SDS011;35290;39.550;8.786;2023-10-08T14:37:10;8.15;;;4.45;;
49416;SDS011;35290;39.550;8.786;2023-10-08T14:39:55;6.15;;;4.65;;
49416;SDS011;35290;39.550;8.786;2023-10-08T14:42:41;7.70;;;4.40;;
49416;SDS011;35290;39.550;8.786;2023-10-08T14:45:31;9.05;;;4.90;;
49416;SDS011;35290;39.550;8.786;2023-10-08T14:48:00;10.15;;;4.90;;
49416;SDS011;35290;39.550;8.786;2023-10-08T14:50:36;8.32;;;5.22;;
49416;SDS011;35290;39.550;8.786;2023-10-08T14:53:07;10.38;;;5.03;;
49416;SDS011;35290;39.550;8.786;2023-10-08T14:55:35;9.68;;;5.03;;
49416;SDS011;35290;39.550;8.786;2023-10-08T14:58:02;7.47;;;4.60;;
49416;SDS011;35290;39.550;8.786;2023-10-08T15:00:35;7.25;;;4.35;;
49416;SDS011;35290;39.550;8.786;2023-10-08T15:03:03;7.43;;;4.60;;
49416;SDS011;35290;39.550;8.786;2023-10-08T15:05:29;10.52;;;4.80;;
49416;SDS011;35290;39.550;8.786;2023-10-08T15:08:01;9.85;;;4.97;;
49416;SDS011;35290;39.550;8.786;2023-10-08T15:10:35;8.15;;;4.82;;
49416;SDS011;35290;39.550;8.786;2023-10-08T15:13:01;6.88;;;4.35;;
49416;SDS011;35290;39.550;8.786;2023-10-08T15:15:28;7.07;;;4.72;;
49416;SDS011;35290;39.550;8.786;2023-10-08T15:20:31;9.18;;;4.50;;
49416;SDS011;35290;39.550;8.786;2023-10-08T15:22:59;9.18;;;4.72;;
49416;SDS011;35290;39.550;8.786;2023-10-08T15:25:25;6.53;;;4.22;;
49416;SDS011;35290;39.550;8.786;2023-10-08T15:27:52;8.35;;;4.45;;
49416;SDS011;35290;39.550;8.786;2023-10-08T15:30:18;10.25;;;5.28;;
49416;SDS011;35290;39.550;8.786;2023-10-08T15:32:46;7.95;;;4.80;;